Time;durP1;ratioP1;P1;durP2;ratioP2;P2;SDS_P1;SDS_P2;PMS_P1;PMS_P2;Temp;Humidity;BMP_temperature;BMP_pressure;BME280_temperature;BME280_humidity;BME280_pressure;Samples;Min_cycle;Max_cycle;Signal;HPM_P1;HPM_P2
2024/03/02 00:00:42;;;;;;;0.70;0.70;;;8.00;99.90;;;;;;4268155;27;20046;-57
2024/03/02 00:02:44;;;;;;;0.88;0.45;;;8.00;99.90;;;;;;4267963;27;20427;-57
2024/03/02 00:04:47;;;;;;;1.35;0.40;;;8.00;99.90;;;;;;4268019;27;20379;-57
2024/03/02 00:06:51;;;;;;;0.32;0.15;;;8.00;99.90;;;;;;4267817;27;20038;-57
2024/03/02 00:08:57;;;;;;;0.35;0.35;;;7.90;99.90;;;;;;4267651;27;20091;-57
2024/03/02 00:11:02;;;;;;;4.18;0.30;;;7.90;99.90;;;;;;4267783;27;20401;-57
2024/03/02 00:13:05;;;;;;;1.02;0.20;;;7.90;99.90;;;;;;4267145;27;20039;-56
2024/03/02 00:15:36;;;;;;;1.45;0.47;;;7.90;99.90;;;;;;4267537;27;20054;-58
2024/03/02 00:17:40;;;;;;;0.65;0.30;;;7.90;99.90;;;;;;4267644;27;20047;-56
2024/03/02 00:19:42;;;;;;;0.30;0.30;;;7.90;99.90;;;;;;4267385;27;20572;-57
2024/03/02 00:21:44;;;;;;;0.15;0.15;;;7.90;99.90;;;;;;4267623;27;20452;-56
2024/03/02 00:23:48;;;;;;;0.40;0.30;;;8.00;99.90;;;;;;4267709;27;20265;-57
2024/03/02 00:25:55;;;;;;;0.20;0.20;;;8.00;99.90;;;;;;4267409;27;20050;-56
2024/03/02 00:27:57;;;;;;;3.15;0.47;;;8.00;99.90;;;;;;4266686;27;20156;-56
2024/03/02 00:30:01;;;;;;;1.17;0.35;;;8.00;99.90;;;;;;4270220;27;20130;-60
2024/03/02 00:32:03;;;;;;;0.30;0.30;;;7.90;99.90;;;;;;4268720;27;20450;-56
2024/03/02 00:34:07;;;;;;;1.30;0.95;;;8.00;99.90;;;;;;4267623;27;20070;-56
2024/03/02 00:36:10;;;;;;;0.25;0.13;;;8.00;99.90;;;;;;4267110;27;20087;-56
2024/03/02 00:38:14;;;;;;;0.60;0.45;;;8.00;99.90;;;;;;4267242;27;20103;-57
2024/03/02 00:40:17;;;;;;;1.50;0.70;;;7.90;99.90;;;;;;4267393;27;20062;-58
2024/03/02 00:42:19;;;;;;;0.47;0.20;;;7.90;99.90;;;;;;4266836;27;20042;-56
2024/03/02 00:44:26;;;;;;;0.20;0.20;;;7.90;99.90;;;;;;4267179;27;20058;-57
2024/03/02 00:46:34;;;;;;;1.13;0.50;;;7.90;99.90;;;;;;4267356;27;20124;-59
2024/03/02 00:48:51;;;;;;;5.57;0.60;;;7.80;99.90;;;;;;4267143;27;20053;-57
2024/03/02 00:50:55;;;;;;;0.35;0.30;;;7.80;99.90;;;;;;4267176;27;20099;-57
2024/03/02 00:52:57;;;;;;;0.28;0.10;;;7.80;99.90;;;;;;4267123;27;20054;-57
2024/03/02 00:54:59;;;;;;;0.80;0.35;;;7.80;99.90;;;;;;4267105;27;20123;-57
2024/03/02 00:57:02;;;;;;;0.55;0.30;;;7.80;99.90;;;;;;4266691;27;20166;-57
2024/03/02 00:59:10;;;;;;;0.40;0.40;;;7.80;99.90;;;;;;4267320;27;20126;-57
2024/03/02 01:01:12;;;;;;;1.15;0.68;;;7.80;99.90;;;;;;4267050;27;20425;-57
2024/03/02 01:03:14;;;;;;;0.55;0.55;;;7.80;99.90;;;;;;4267112;27;20042;-57
2024/03/02 01:05:17;;;;;;;1.52;0.80;;;7.90;99.90;;;;;;4267222;27;20042;-56
2024/03/02 01:07:20;;;;;;;0.73;0.20;;;7.90;99.90;;;;;;4267138;27;20047;-56
2024/03/02 01:09:22;;;;;;;0.10;0.10;;;7.80;99.90;;;;;;4268431;27;20098;-56
2024/03/02 01:11:24;;;;;;;0.35;0.13;;;7.90;99.90;;;;;;4267078;27;20043;-56
2024/03/02 01:13:26;;;;;;;0.32;0.30;;;7.80;99.90;;;;;;4266551;27;20047;-57
2024/03/02 01:15:28;;;;;;;0.75;0.30;;;7.70;99.90;;;;;;4266353;27;20069;-57
2024/03/02 01:17:31;;;;;;;0.40;0.40;;;7.80;99.90;;;;;;4266597;27;20101;-56
2024/03/02 01:19:33;;;;;;;0.22;0.20;;;7.80;99.90;;;;;;4266401;27;20050;-57
2024/03/02 01:21:35;;;;;;;0.90;0.38;;;7.80;99.90;;;;;;4266779;27;20092;-56
2024/03/02 01:23:39;;;;;;;0.28;0.28;;;7.80;99.90;;;;;;4266702;27;20061;-56
2024/03/02 01:25:41;;;;;;;0.82;0.40;;;7.80;99.90;;;;;;4265900;27;20046;-57
2024/03/02 01:27:43;;;;;;;0.88;0.65;;;7.70;99.90;;;;;;4266812;27;20493;-57
2024/03/02 01:29:47;;;;;;;0.32;0.32;;;7.70;99.90;;;;;;4266915;27;20070;-61
2024/03/02 01:31:51;;;;;;;4.07;1.08;;;7.90;99.90;;;;;;4267186;27;20448;-57
2024/03/02 01:33:53;;;;;;;6.70;1.88;;;7.80;99.90;;;;;;4266845;27;20074;-56
2024/03/02 01:35:56;;;;;;;0.47;0.30;;;7.80;99.90;;;;;;4266743;27;20121;-56
2024/03/02 01:37:58;;;;;;;0.90;0.30;;;7.80;99.90;;;;;;4266579;27;20042;-56
2024/03/02 01:40:02;;;;;;;0.40;0.38;;;7.70;99.90;;;;;;4265127;27;20164;-57
2024/03/02 01:42:05;;;;;;;0.50;0.50;;;7.70;99.90;;;;;;4266215;27;20069;-58
2024/03/02 01:44:07;;;;;;;2.40;1.17;;;7.80;99.90;;;;;;4266397;27;20095;-57
2024/03/02 01:46:09;;;;;;;0.73;0.35;;;7.70;99.90;;;;;;4265934;27;20042;-57
2024/03/02 01:48:12;;;;;;;0.47;0.30;;;7.70;99.90;;;;;;4266123;27;20042;-57
2024/03/02 01:50:14;;;;;;;0.95;0.90;;;7.80;99.90;;;;;;4266141;27;20054;-57
2024/03/02 01:52:16;;;;;;;1.92;0.65;;;7.80;99.90;;;;;;4265968;27;20605;-57
2024/03/02 01:54:18;;;;;;;0.25;0.20;;;7.70;99.90;;;;;;4265650;27;20042;-57
2024/03/02 01:56:22;;;;;;;0.90;0.75;;;7.70;99.90;;;;;;4266049;27;20473;-56
2024/03/02 01:58:24;;;;;;;2.17;0.98;;;7.70;99.90;;;;;;4265904;27;20039;-58
2024/03/02 02:00:26;;;;;;;0.40;0.20;;;7.60;99.90;;;;;;4265991;27;20405;-57
2024/03/02 02:02:29;;;;;;;0.68;0.30;;;7.70;99.90;;;;;;4265706;27;20042;-57
2024/03/02 02:04:31;;;;;;;2.17;0.30;;;7.70;99.90;;;;;;4266014;27;20421;-56
2024/03/02 02:06:33;;;;;;;0.38;0.28;;;7.70;99.90;;;;;;4265693;27;20050;-57
2024/03/02 02:08:37;;;;;;;0.75;0.40;;;7.70;99.90;;;;;;4265337;27;20478;-57
2024/03/02 02:10:39;;;;;;;1.20;0.30;;;7.70;99.90;;;;;;4265672;27;20385;-57
2024/03/02 02:12:42;;;;;;;0.30;0.30;;;7.60;99.90;;;;;;4265927;27;20397;-57
2024/03/02 02:14:48;;;;;;;1.77;1.15;;;7.60;99.90;;;;;;4265946;27;20039;-56
2024/03/02 02:16:52;;;;;;;2.95;1.17;;;7.60;99.90;;;;;;4269089;27;20047;-59
2024/03/02 02:18:54;;;;;;;1.73;0.40;;;7.50;99.90;;;;;;4248290;27;20103;-57
2024/03/02 02:20:56;;;;;;;0.85;0.38;;;7.50;99.90;;;;;;4266133;27;20039;-57
2024/03/02 02:23:00;;;;;;;0.68;0.47;;;7.60;99.90;;;;;;4265302;27;20500;-56
2024/03/02 02:25:03;;;;;;;3.58;1.08;;;7.70;99.90;;;;;;4265770;27;20054;-57
2024/03/02 02:27:05;;;;;;;2.08;0.75;;;7.70;99.90;;;;;;4265697;27;20051;-57
2024/03/02 02:29:07;;;;;;;1.30;0.30;;;7.60;99.90;;;;;;4265439;27;20436;-57
2024/03/02 02:31:09;;;;;;;10.00;2.05;;;7.50;99.90;;;;;;4265580;27;20047;-57
2024/03/02 02:33:11;;;;;;;0.65;0.30;;;7.40;99.90;;;;;;4265739;27;20435;-56
2024/03/02 02:35:14;;;;;;;1.75;0.38;;;7.50;99.90;;;;;;4265322;27;20493;-57
2024/03/02 02:37:16;;;;;;;3.95;0.20;;;7.60;99.90;;;;;;4265319;27;20652;-57
2024/03/02 02:39:22;;;;;;;0.98;0.38;;;7.60;99.90;;;;;;4265403;27;20412;-56
2024/03/02 02:41:24;;;;;;;0.57;0.40;;;7.60;99.90;;;;;;4265250;27;20103;-57
2024/03/02 02:43:26;;;;;;;0.52;0.38;;;7.60;99.90;;;;;;4265459;27;20049;-57
2024/03/02 02:45:28;;;;;;;0.47;0.30;;;7.60;99.90;;;;;;4265235;27;20039;-56
2024/03/02 02:47:30;;;;;;;0.55;0.28;;;7.60;99.90;;;;;;4265242;27;20121;-57
2024/03/02 02:49:32;;;;;;;0.50;0.30;;;7.50;99.90;;;;;;4265351;27;20118;-57
2024/03/02 02:51:34;;;;;;;1.50;0.50;;;7.40;99.90;;;;;;4246752;27;20043;-57
2024/03/02 02:53:40;;;;;;;0.95;0.20;;;7.40;99.90;;;;;;4265133;27;20065;-57
2024/03/02 02:55:43;;;;;;;0.45;0.30;;;7.50;99.90;;;;;;4247273;27;20054;-58
2024/03/02 02:57:46;;;;;;;1.15;0.30;;;7.50;99.90;;;;;;4265242;27;20477;-57
2024/03/02 02:59:48;;;;;;;5.15;1.75;;;7.40;99.90;;;;;;4246863;28;20482;-58
2024/03/02 03:01:51;;;;;;;4.07;1.38;;;7.50;99.90;;;;;;4265204;27;20039;-57
2024/03/02 03:03:54;;;;;;;0.55;0.55;;;7.40;99.90;;;;;;4265484;27;20059;-57
2024/03/02 03:05:56;;;;;;;0.40;0.30;;;7.50;99.90;;;;;;4265522;27;20043;-57
2024/03/02 03:07:57;;;;;;;0.75;0.38;;;7.40;99.90;;;;;;4265877;27;20054;-62
2024/03/02 03:10:00;;;;;;;0.40;0.40;;;7.40;99.90;;;;;;4265518;27;20501;-57
2024/03/02 03:12:04;;;;;;;2.05;0.50;;;7.50;99.90;;;;;;4265308;27;20072;-56
2024/03/02 03:14:06;;;;;;;5.22;1.38;;;7.50;99.90;;;;;;4265244;27;20413;-57
2024/03/02 03:16:08;;;;;;;0.57;0.57;;;7.50;99.90;;;;;;4265252;27;20049;-57
2024/03/02 03:18:10;;;;;;;0.30;0.22;;;7.40;99.90;;;;;;4265429;27;20081;-56
2024/03/02 03:20:14;;;;;;;1.33;0.57;;;7.40;99.90;;;;;;4265035;27;20046;-57
2024/03/02 03:22:16;;;;;;;0.60;0.32;;;7.40;99.90;;;;;;4264876;27;20050;-56
2024/03/02 03:24:18;;;;;;;1.02;0.38;;;7.40;99.90;;;;;;4265136;27;20045;-56
2024/03/02 03:26:20;;;;;;;1.85;0.57;;;7.40;99.90;;;;;;4265212;27;20130;-58
2024/03/02 03:28:23;;;;;;;2.78;0.60;;;7.40;99.90;;;;;;4265174;27;20398;-56
2024/03/02 03:30:26;;;;;;;0.45;0.20;;;7.40;99.90;;;;;;4264915;27;20047;-56
2024/03/02 03:32:28;;;;;;;2.47;0.77;;;7.30;99.90;;;;;;4264919;27;20043;-56
2024/03/02 03:34:32;;;;;;;0.57;0.50;;;7.30;99.90;;;;;;4265004;27;20047;-57
2024/03/02 03:36:34;;;;;;;3.53;0.45;;;7.30;99.90;;;;;;4264940;27;20493;-57
2024/03/02 03:38:36;;;;;;;1.70;0.50;;;7.30;99.90;;;;;;4266548;27;20519;-57
2024/03/02 03:40:38;;;;;;;0.63;0.35;;;7.40;99.90;;;;;;4265369;27;20509;-60
2024/03/02 03:42:40;;;;;;;0.47;0.40;;;7.30;99.90;;;;;;4265477;27;20046;-57
2024/03/02 03:44:44;;;;;;;0.80;0.77;;;7.40;99.90;;;;;;4265649;27;20382;-58
2024/03/02 03:46:46;;;;;;;2.03;0.50;;;7.40;99.90;;;;;;4265012;27;20125;-56
2024/03/02 03:48:48;;;;;;;0.65;0.40;;;7.30;99.90;;;;;;4265414;27;20542;-56
2024/03/02 03:50:50;;;;;;;0.57;0.57;;;7.30;99.90;;;;;;4265674;27;20042;-59
2024/03/02 03:52:52;;;;;;;0.43;0.35;;;7.30;99.90;;;;;;4267607;27;20046;-59
2024/03/02 03:54:54;;;;;;;1.08;0.88;;;7.30;99.90;;;;;;4267824;27;20054;-59
2024/03/02 03:56:57;;;;;;;3.30;0.85;;;7.30;99.90;;;;;;4266580;27;20046;-55
2024/03/02 03:58:59;;;;;;;1.65;0.82;;;7.30;99.90;;;;;;4267018;27;20043;-61
2024/03/02 04:01:03;;;;;;;0.65;0.65;;;7.30;99.90;;;;;;4267017;27;20047;-60
2024/03/02 04:03:05;;;;;;;2.72;0.35;;;7.30;99.90;;;;;;4267794;27;20532;-57
2024/03/02 04:05:10;;;;;;;0.20;0.20;;;7.30;99.90;;;;;;4269666;27;20558;-61
2024/03/02 04:07:13;;;;;;;0.45;0.25;;;7.20;99.90;;;;;;4269406;27;20047;-61
2024/03/02 04:09:15;;;;;;;0.10;0.10;;;7.20;99.90;;;;;;4269518;27;20038;-57
2024/03/02 04:11:17;;;;;;;0.28;0.20;;;7.30;99.90;;;;;;4269997;27;20065;-59
2024/03/02 04:13:20;;;;;;;1.20;0.75;;;7.20;99.90;;;;;;4270008;27;20477;-58
2024/03/02 04:15:23;;;;;;;0.70;0.65;;;7.20;99.90;;;;;;4269779;27;20054;-57
2024/03/02 04:17:26;;;;;;;1.00;0.60;;;7.30;99.90;;;;;;4269467;27;20057;-63
2024/03/02 04:19:28;;;;;;;0.93;0.20;;;7.10;99.90;;;;;;4250263;27;20096;-57
2024/03/02 04:21:31;;;;;;;0.70;0.40;;;7.10;99.90;;;;;;4269550;27;20042;-59
2024/03/02 04:23:33;;;;;;;3.97;1.38;;;7.10;99.90;;;;;;4268837;27;20049;-57
2024/03/02 04:25:36;;;;;;;0.20;0.20;;;7.10;99.90;;;;;;4249558;27;20055;-56
2024/03/02 04:27:38;;;;;;;0.68;0.30;;;7.10;99.90;;;;;;4267623;27;20046;-57
2024/03/02 04:29:40;;;;;;;0.88;0.47;;;7.10;99.90;;;;;;4267360;27;20046;-56
2024/03/02 04:31:42;;;;;;;1.65;1.10;;;7.10;99.90;;;;;;4267873;27;20049;-56
2024/03/02 04:33:45;;;;;;;1.58;0.75;;;7.10;99.90;;;;;;4249571;27;20094;-60
2024/03/02 04:35:47;;;;;;;0.68;0.30;;;7.20;99.90;;;;;;4249582;27;20116;-57
2024/03/02 04:37:50;;;;;;;0.52;0.30;;;7.10;99.90;;;;;;4267257;27;20516;-57
2024/03/02 04:39:52;;;;;;;0.52;0.52;;;7.10;99.90;;;;;;4267524;27;20099;-57
2024/03/02 04:41:54;;;;;;;0.75;0.68;;;7.10;99.90;;;;;;4267265;27;20439;-58
2024/03/02 04:43:56;;;;;;;2.22;0.85;;;7.10;99.90;;;;;;4267509;27;20042;-58
2024/03/02 04:45:58;;;;;;;0.40;0.20;;;7.10;99.90;;;;;;4267616;27;20043;-56
2024/03/02 04:48:01;;;;;;;0.98;0.35;;;7.10;99.90;;;;;;4267080;27;20405;-56
2024/03/02 04:50:07;;;;;;;0.65;0.30;;;7.10;99.90;;;;;;4267473;27;20431;-57
2024/03/02 04:52:10;;;;;;;1.10;0.28;;;7.10;99.90;;;;;;4267409;27;20082;-56
2024/03/02 04:54:14;;;;;;;3.28;1.60;;;7.00;99.90;;;;;;4267551;27;20065;-57
2024/03/02 04:58:50;;;;;;;1.70;0.80;;;7.00;99.90;;;;;;4213365;28;20055;-57
2024/03/02 05:00:52;;;;;;;2.30;0.38;;;7.00;99.90;;;;;;4214207;28;20048;-58
2024/03/02 05:02:54;;;;;;;0.80;0.43;;;7.10;99.90;;;;;;4213622;28;20157;-57
2024/03/02 05:04:56;;;;;;;2.03;1.08;;;7.10;99.90;;;;;;4213952;28;20056;-58
2024/03/02 05:06:59;;;;;;;2.13;0.45;;;7.10;99.90;;;;;;4214007;28;20048;-57
2024/03/02 05:09:02;;;;;;;0.20;0.20;;;7.10;99.90;;;;;;4214003;28;20194;-58
2024/03/02 05:13:25;;;;;;;0.98;0.35;;;7.10;99.90;;;;;;4213903;28;20427;-61
2024/03/02 05:15:28;;;;;;;0.30;0.20;;;7.10;99.90;;;;;;4215196;28;20048;-57
2024/03/02 05:17:30;;;;;;;0.90;0.65;;;7.00;99.90;;;;;;4215313;28;20048;-58
2024/03/02 05:19:32;;;;;;;0.20;0.20;;;7.00;99.90;;;;;;4215136;28;20060;-56
2024/03/02 05:21:34;;;;;;;3.10;1.15;;;7.00;99.90;;;;;;4215598;28;20062;-57
2024/03/02 05:23:39;;;;;;;4.65;0.98;;;7.10;99.90;;;;;;4215043;28;20048;-57
2024/03/02 05:25:41;;;;;;;0.45;0.45;;;7.10;99.90;;;;;;4214322;28;20044;-56
2024/03/02 05:27:43;;;;;;;0.30;0.20;;;7.10;99.90;;;;;;4213539;28;20133;-57
2024/03/02 05:29:45;;;;;;;1.55;0.40;;;7.00;99.90;;;;;;4213602;28;20040;-56
2024/03/02 05:31:47;;;;;;;0.25;0.25;;;7.00;99.90;;;;;;4213056;28;20048;-58
2024/03/02 05:33:49;;;;;;;0.30;0.30;;;7.10;99.90;;;;;;4214919;27;20070;-57
2024/03/02 05:35:58;;;;;;;1.08;0.70;;;7.00;99.90;;;;;;4266289;27;20048;-57
2024/03/02 05:38:00;;;;;;;3.92;1.40;;;7.10;99.90;;;;;;4266288;27;20126;-57
2024/03/02 05:40:05;;;;;;;0.52;0.25;;;7.00;99.90;;;;;;4267604;27;20050;-61
2024/03/02 05:42:07;;;;;;;4.00;1.35;;;7.00;99.90;;;;;;4268285;27;20050;-58
2024/03/02 05:44:09;;;;;;;1.80;0.50;;;7.10;99.90;;;;;;4266986;27;20130;-60
2024/03/02 05:46:11;;;;;;;1.30;0.68;;;7.10;99.90;;;;;;4266300;27;20047;-57
2024/03/02 05:48:14;;;;;;;3.40;1.33;;;7.10;99.90;;;;;;4266416;27;20050;-57
2024/03/02 05:50:16;;;;;;;0.50;0.32;;;7.10;99.90;;;;;;4267931;27;20099;-57
2024/03/02 05:52:18;;;;;;;2.85;1.08;;;7.00;99.90;;;;;;4267257;27;20121;-58
2024/03/02 05:54:21;;;;;;;0.65;0.30;;;7.10;99.90;;;;;;4266205;27;20095;-56
2024/03/02 05:56:25;;;;;;;3.67;0.60;;;7.00;99.90;;;;;;4266009;27;20369;-57
2024/03/02 06:00:47;;;;;;;0.30;0.20;;;7.00;99.90;;;;;;4265484;27;20047;-56
2024/03/02 06:02:50;;;;;;;1.27;0.40;;;7.00;99.90;;;;;;4247378;27;20474;-57
2024/03/02 06:04:55;;;;;;;1.00;0.75;;;7.00;99.90;;;;;;4248876;27;20051;-56
2024/03/02 06:06:57;;;;;;;1.20;0.73;;;7.00;99.90;;;;;;4248911;27;20115;-57
2024/03/02 06:08:59;;;;;;;1.02;0.98;;;7.10;99.90;;;;;;4247786;27;20047;-57
2024/03/02 06:11:02;;;;;;;0.70;0.40;;;7.10;99.90;;;;;;4248838;27;20046;-57
2024/03/02 06:13:06;;;;;;;2.45;0.55;;;7.10;99.90;;;;;;4249044;27;20043;-56
2024/03/02 06:15:08;;;;;;;0.52;0.25;;;7.10;99.90;;;;;;4248458;27;20467;-56
2024/03/02 06:17:10;;;;;;;1.63;0.65;;;7.20;99.90;;;;;;4248449;27;20054;-63
2024/03/02 06:19:12;;;;;;;3.22;0.70;;;7.10;99.90;;;;;;4248501;27;20051;-58
2024/03/02 06:21:14;;;;;;;0.52;0.22;;;7.20;99.90;;;;;;4248471;27;20409;-59
2024/03/02 06:23:18;;;;;;;2.22;0.70;;;7.10;99.90;;;;;;4249076;27;20541;-57
2024/03/02 06:25:20;;;;;;;1.00;0.75;;;7.20;99.90;;;;;;4249001;27;20509;-60
2024/03/02 06:27:22;;;;;;;2.63;0.82;;;7.20;99.90;;;;;;4248674;27;20043;-57
2024/03/02 06:29:26;;;;;;;4.05;2.35;;;7.30;99.90;;;;;;4248638;27;20126;-58
2024/03/02 06:31:27;;;;;;;1.27;0.80;;;7.30;99.90;;;;;;4248870;27;20078;-56
2024/03/02 06:33:30;;;;;;;1.23;0.40;;;7.30;99.90;;;;;;4248166;27;20142;-56
2024/03/02 06:35:32;;;;;;;1.45;1.10;;;7.40;99.90;;;;;;4248577;27;20043;-56
2024/03/02 06:37:34;;;;;;;0.73;0.32;;;7.40;99.90;;;;;;4248444;27;20039;-56
2024/03/02 06:39:36;;;;;;;2.92;0.88;;;7.40;99.90;;;;;;4248428;27;20046;-57
2024/03/02 06:41:38;;;;;;;2.03;0.50;;;7.40;99.90;;;;;;4248320;27;20414;-57
2024/03/02 06:43:41;;;;;;;1.05;0.80;;;7.40;99.90;;;;;;4248264;27;20043;-57
2024/03/02 06:45:45;;;;;;;0.40;0.30;;;7.40;99.90;;;;;;4248129;27;20057;-57
2024/03/02 06:47:47;;;;;;;0.40;0.32;;;7.40;99.90;;;;;;4248932;27;20039;-57
2024/03/02 06:49:49;;;;;;;0.60;0.60;;;7.40;99.90;;;;;;4248905;27;20043;-57
2024/03/02 06:51:51;;;;;;;0.90;0.40;;;7.50;99.90;;;;;;4249208;27;20043;-56
2024/03/02 06:53:53;;;;;;;0.57;0.45;;;7.50;99.90;;;;;;4249005;27;20047;-56
2024/03/02 06:55:55;;;;;;;0.65;0.50;;;7.50;99.90;;;;;;4248184;27;20039;-56
2024/03/02 06:57:57;;;;;;;0.75;0.75;;;7.50;99.90;;;;;;4248293;27;20116;-58
2024/03/02 06:59:59;;;;;;;0.50;0.32;;;7.60;99.90;;;;;;4247720;27;20050;-58
2024/03/02 07:02:03;;;;;;;1.98;0.52;;;7.60;99.90;;;;;;4252467;27;20054;-59
2024/03/02 07:04:06;;;;;;;0.68;0.40;;;7.60;99.90;;;;;;4265262;27;20075;-58
2024/03/02 07:06:08;;;;;;;2.22;1.08;;;7.60;99.90;;;;;;4265281;27;20066;-58
2024/03/02 07:08:10;;;;;;;1.20;0.70;;;7.60;99.90;;;;;;4265356;27;20103;-57
2024/03/02 07:10:12;;;;;;;2.38;0.63;;;7.60;99.90;;;;;;4265227;27;20069;-57
2024/03/02 07:12:15;;;;;;;1.52;0.85;;;7.60;99.90;;;;;;4265506;27;20047;-59
2024/03/02 07:14:17;;;;;;;1.73;1.13;;;7.70;99.90;;;;;;4266461;27;20512;-57
2024/03/02 07:16:27;;;;;;;1.30;0.57;;;7.80;99.90;;;;;;4267147;27;20043;-59
2024/03/02 07:18:31;;;;;;;3.35;0.60;;;7.80;99.90;;;;;;4266856;27;20057;-63
2024/03/02 07:20:33;;;;;;;0.20;0.20;;;7.80;99.90;;;;;;4265049;27;20058;-57
2024/03/02 07:22:37;;;;;;;1.50;1.05;;;7.80;99.90;;;;;;4265369;27;20043;-57
2024/03/02 07:24:41;;;;;;;0.73;0.30;;;7.80;99.90;;;;;;4265892;27;20414;-57
2024/03/02 07:26:43;;;;;;;1.75;0.50;;;7.80;99.90;;;;;;4265520;27;20038;-58
2024/03/02 07:28:49;;;;;;;;;;;7.80;99.90;;;;;;4265747;27;20071;-57
2024/03/02 07:30:58;;;;;;;0.90;0.25;;;7.90;99.90;;;;;;4247001;28;19919;-57
2024/03/02 07:33:00;;;;;;;1.45;0.50;;;7.90;99.90;;;;;;4264886;27;20043;-58
2024/03/02 07:35:04;;;;;;;0.38;0.20;;;7.90;99.90;;;;;;4265954;27;20047;-58
2024/03/02 07:37:07;;;;;;;1.15;1.05;;;8.00;99.90;;;;;;4267257;27;20043;-57
2024/03/02 07:39:09;;;;;;;1.25;0.88;;;8.10;99.90;;;;;;4269250;27;20053;-57
2024/03/02 07:41:12;;;;;;;0.30;0.30;;;8.20;99.90;;;;;;4268488;27;20043;-57
2024/03/02 07:43:14;;;;;;;0.73;0.40;;;8.20;99.90;;;;;;4267856;27;20074;-56
2024/03/02 07:45:16;;;;;;;1.38;0.60;;;8.30;99.90;;;;;;4268281;27;20048;-57
2024/03/02 07:47:18;;;;;;;2.40;0.30;;;8.30;99.90;;;;;;4268540;27;20399;-57
2024/03/02 07:49:20;;;;;;;1.17;0.30;;;8.30;99.90;;;;;;4269166;27;20477;-56
2024/03/02 07:51:24;;;;;;;0.82;0.80;;;8.40;99.90;;;;;;4268776;27;20126;-56
2024/03/02 07:53:26;;;;;;;0.38;0.32;;;8.40;99.90;;;;;;4269040;27;20054;-60
2024/03/02 07:55:28;;;;;;;0.80;0.80;;;8.40;99.90;;;;;;4268165;27;20038;-57
2024/03/02 07:57:30;;;;;;;0.55;0.32;;;8.50;99.90;;;;;;4267655;27;20038;-61
2024/03/02 07:59:32;;;;;;;1.38;0.60;;;8.50;99.90;;;;;;4268795;27;20111;-56
2024/03/02 08:01:34;;;;;;;2.17;1.05;;;8.50;99.90;;;;;;4268686;27;20125;-57
2024/03/02 08:03:37;;;;;;;0.70;0.60;;;8.60;99.90;;;;;;4269093;27;20046;-63
2024/03/02 08:05:39;;;;;;;0.63;0.40;;;8.70;99.90;;;;;;4268229;27;20047;-57
2024/03/02 08:07:44;;;;;;;0.65;0.32;;;8.80;99.90;;;;;;4267868;27;20042;-57
2024/03/02 08:09:46;;;;;;;;;;;8.90;99.90;;;;;;4268608;27;20130;-57
2024/03/02 08:11:48;;;;;;;0.60;0.60;;;8.80;99.90;;;;;;4267691;27;20258;-56
2024/03/02 08:13:52;;;;;;;0.43;0.28;;;8.80;99.90;;;;;;4249927;27;20043;-57
2024/03/02 08:15:54;;;;;;;3.25;0.63;;;8.90;99.90;;;;;;4267726;27;20067;-57
2024/03/02 08:17:57;;;;;;;0.63;0.55;;;8.80;99.90;;;;;;4267662;27;20503;-57
2024/03/02 08:19:59;;;;;;;0.82;0.30;;;8.90;99.90;;;;;;4267416;27;20515;-57
2024/03/02 08:22:01;;;;;;;1.73;0.77;;;8.90;99.90;;;;;;4267518;27;20047;-57
2024/03/02 08:24:06;;;;;;;3.00;0.90;;;8.90;99.90;;;;;;4267351;27;20042;-57
2024/03/02 08:26:09;;;;;;;1.15;0.93;;;8.90;99.90;;;;;;4267291;27;20130;-58
2024/03/02 08:28:11;;;;;;;0.80;0.80;;;9.00;99.90;;;;;;4267535;27;20046;-56
2024/03/02 08:30:14;;;;;;;0.95;0.40;;;9.00;99.90;;;;;;4267559;27;20050;-58
2024/03/02 08:32:17;;;;;;;0.70;0.60;;;9.00;99.90;;;;;;4267286;27;20050;-57
2024/03/02 08:34:19;;;;;;;1.05;0.50;;;9.00;99.90;;;;;;4267425;27;20095;-57
2024/03/02 08:36:21;;;;;;;1.00;0.30;;;9.00;99.90;;;;;;4267119;27;20045;-57
2024/03/02 08:38:23;;;;;;;1.80;0.22;;;9.00;99.90;;;;;;4267499;27;20039;-57
2024/03/02 08:40:27;;;;;;;4.35;0.90;;;9.00;99.90;;;;;;4267034;27;20386;-57
2024/03/02 08:42:29;;;;;;;1.33;0.47;;;9.00;99.90;;;;;;4267561;27;20534;-60
2024/03/02 08:44:31;;;;;;;1.27;0.98;;;9.00;99.90;;;;;;4267285;27;20043;-56
2024/03/02 08:46:33;;;;;;;2.50;0.35;;;9.00;99.90;;;;;;4267280;27;20042;-56
2024/03/02 08:48:35;;;;;;;0.28;0.20;;;9.10;99.90;;;;;;4266868;27;20503;-57
2024/03/02 08:50:37;;;;;;;1.50;0.32;;;9.00;99.90;;;;;;4267158;27;20073;-56
2024/03/02 08:52:40;;;;;;;1.85;0.20;;;9.00;99.90;;;;;;4269467;27;20129;-57
2024/03/02 08:54:42;;;;;;;1.17;0.93;;;9.10;99.90;;;;;;4268944;27;20054;-58
2024/03/02 08:56:45;;;;;;;5.28;1.15;;;9.10;99.90;;;;;;4269479;27;20126;-57
2024/03/02 08:58:47;;;;;;;1.48;0.50;;;9.20;99.90;;;;;;4267129;27;20729;-56
2024/03/02 09:00:50;;;;;;;0.47;0.30;;;9.50;99.90;;;;;;4266893;27;20069;-56
2024/03/02 09:02:52;;;;;;;2.10;0.95;;;9.70;99.90;;;;;;4262217;27;20049;-57
2024/03/02 09:04:54;;;;;;;0.30;0.30;;;9.60;99.90;;;;;;4264180;27;20051;-56
2024/03/02 09:06:56;;;;;;;1.85;0.40;;;9.90;99.90;;;;;;4260303;27;20045;-56
2024/03/02 09:08:58;;;;;;;0.70;0.10;;;9.90;99.90;;;;;;4259011;27;20043;-56
2024/03/02 09:11:00;;;;;;;0.90;0.40;;;9.90;99.90;;;;;;4249783;27;20053;-57
2024/03/02 09:13:04;;;;;;;2.35;0.22;;;9.60;99.90;;;;;;4249823;27;20066;-56
2024/03/02 09:15:06;;;;;;;0.25;0.15;;;9.50;99.90;;;;;;4249607;27;20043;-56
2024/03/02 09:17:10;;;;;;;0.65;0.65;;;9.40;99.90;;;;;;4250875;27;20062;-56
2024/03/02 09:19:12;;;;;;;0.25;0.15;;;9.20;99.90;;;;;;4256826;27;20051;-58
2024/03/02 09:21:15;;;;;;;0.40;0.30;;;9.20;99.90;;;;;;4266236;27;20050;-56
2024/03/02 09:23:17;;;;;;;1.25;1.15;;;9.20;99.90;;;;;;4264629;27;20046;-60
2024/03/02 09:25:19;;;;;;;1.02;0.30;;;9.00;99.90;;;;;;4250808;27;20039;-57
2024/03/02 09:27:21;;;;;;;0.77;0.28;;;9.00;99.90;;;;;;4260078;27;20465;-57
2024/03/02 09:29:25;;;;;;;0.55;0.30;;;8.90;99.90;;;;;;4249385;27;20355;-57
2024/03/02 09:31:27;;;;;;;0.57;0.45;;;8.90;99.90;;;;;;4249102;27;20050;-57
2024/03/02 09:33:29;;;;;;;2.13;0.50;;;9.00;99.90;;;;;;4249006;27;20402;-57
2024/03/02 09:35:32;;;;;;;9.82;1.27;;;9.00;99.90;;;;;;4257021;27;20043;-57
2024/03/02 09:37:34;;;;;;;1.65;0.52;;;8.90;99.90;;;;;;4266274;27;20035;-59
2024/03/02 09:39:36;;;;;;;3.55;1.42;;;8.90;99.90;;;;;;4265677;27;20043;-57
2024/03/02 09:41:39;;;;;;;1.67;0.30;;;9.00;99.90;;;;;;4266769;27;20047;-58
2024/03/02 09:43:41;;;;;;;0.60;0.20;;;9.00;99.90;;;;;;4265786;27;20095;-56
2024/03/02 09:45:46;;;;;;;2.25;0.95;;;9.00;99.90;;;;;;4266173;27;20066;-57
2024/03/02 09:47:49;;;;;;;1.15;0.70;;;9.10;99.90;;;;;;4265671;27;20042;-57
2024/03/02 09:49:51;;;;;;;0.10;0.10;;;9.20;99.90;;;;;;4266070;27;20095;-57
2024/03/02 09:51:53;;;;;;;0.50;0.43;;;9.20;99.90;;;;;;4247268;27;20123;-57
2024/03/02 09:53:56;;;;;;;0.93;0.22;;;9.20;99.90;;;;;;4247140;27;20039;-57
2024/03/02 09:56:15;;;;;;;2.28;0.50;;;9.20;99.90;;;;;;4259294;27;20093;-58
2024/03/02 09:58:17;;;;;;;11.82;1.55;;;9.40;99.90;;;;;;4251320;27;20087;-56
2024/03/02 10:00:20;;;;;;;1.65;0.68;;;9.30;99.90;;;;;;4248279;27;20059;-57
2024/03/02 10:02:23;;;;;;;1.10;0.35;;;9.40;99.90;;;;;;4255669;27;20078;-56
2024/03/02 10:04:26;;;;;;;0.43;0.40;;;9.60;99.90;;;;;;4265677;27;20050;-58
2024/03/02 10:06:29;;;;;;;0.75;0.50;;;9.70;99.90;;;;;;4265526;27;20046;-57
2024/03/02 10:08:43;;;;;;;2.67;0.70;;;9.70;99.90;;;;;;4265101;27;20046;-57
2024/03/02 10:10:46;;;;;;;0.57;0.40;;;9.80;99.90;;;;;;4265590;27;20038;-57
2024/03/02 10:12:49;;;;;;;2.28;0.77;;;10.20;99.90;;;;;;4265715;27;20043;-57
2024/03/02 10:15:04;;;;;;;2.17;1.10;;;10.20;99.90;;;;;;4265523;27;20047;-58
2024/03/02 10:17:09;;;;;;;2.25;0.50;;;10.10;99.90;;;;;;4265225;27;20126;-55
2024/03/02 10:19:20;;;;;;;0.28;0.28;;;10.30;99.90;;;;;;4265272;27;20046;-57
2024/03/02 10:21:24;;;;;;;1.88;0.30;;;10.40;99.90;;;;;;4264332;27;20091;-57
2024/03/02 10:23:26;;;;;;;0.43;0.30;;;10.40;99.90;;;;;;4265445;27;20443;-57
2024/03/02 10:25:31;;;;;;;0.30;0.30;;;10.60;99.90;;;;;;4265351;27;20087;-56
2024/03/02 10:27:50;;;;;;;0.20;0.20;;;10.60;99.90;;;;;;4252570;27;20039;-56
2024/03/02 10:29:52;;;;;;;2.47;0.70;;;10.60;99.90;;;;;;4249281;27;20121;-56
2024/03/02 10:31:55;;;;;;;2.55;0.40;;;10.80;99.90;;;;;;4258309;27;20038;-57
2024/03/02 10:33:59;;;;;;;1.35;0.28;;;10.90;99.90;;;;;;4248066;27;20088;-57
2024/03/02 10:36:03;;;;;;;0.65;0.35;;;11.10;99.90;;;;;;4251141;27;20125;-57
2024/03/02 10:38:06;;;;;;;0.43;0.43;;;10.90;99.90;;;;;;4260935;27;20050;-57
2024/03/02 10:40:11;;;;;;;3.58;1.02;;;10.70;99.90;;;;;;4265336;27;20045;-57
2024/03/02 10:42:14;;;;;;;1.05;0.95;;;10.70;99.90;;;;;;4264373;27;20114;-56
2024/03/02 10:44:17;;;;;;;1.08;0.22;;;10.60;99.90;;;;;;4248133;27;20405;-57
2024/03/02 10:46:20;;;;;;;2.40;0.30;;;10.60;99.90;;;;;;4247612;27;20458;-57
2024/03/02 10:48:23;;;;;;;0.68;0.50;;;10.80;99.90;;;;;;4247854;27;20063;-56
2024/03/02 10:50:25;;;;;;;2.60;0.38;;;10.90;99.90;;;;;;4247232;27;20070;-57
2024/03/02 10:52:29;;;;;;;0.98;0.50;;;10.90;99.90;;;;;;4251749;27;20047;-56
2024/03/02 10:54:35;;;;;;;1.98;0.52;;;10.80;99.90;;;;;;4254735;27;20069;-60
2024/03/02 10:56:40;;;;;;;7.13;0.82;;;11.00;99.90;;;;;;4255227;27;20039;-56